Aérodrome :
LOGIN :

S'inscrire | Disclaimer

   EN    FR    IT 

 










Légende :    VFR   VFR Marginal   IFR   IFR Intensif   IFR Très Intensif
Visi : 
Plafond : 
>= 8 km
>= 3000ft
5 à 8 km
1000 à 3000 ft
1500m à 5 km
500 à 1000 ft
800 à 1500m
200 à 500 ft
< 800m
< 200 ft
Symboles :   Orages  Brouillard  Fortes neiges  Fortes précipitations  Vent > 20 kt
SIGMETs :   Divers  Orages  Givrage  Turbulence  Onde Orograph.  Cendres Volcan.







- Altitude de l'aérodrome : 7 ft
- Code IATA : POW


LJPZ - Portoroz

DERNIER METAR :
  • 252000Z 14012KT 110V180 CAVOK 15/10 Q1012

METARs EXPIRÉS :
  • 251930Z 14012KT 100V180 CAVOK 15/09 Q1012
  • 251900Z 14014KT 110V180 CAVOK 16/09 Q1011
  • 251830Z 14011KT 110V170 CAVOK 16/10 Q1011
  • 251800Z 14010KT 110V190 CAVOK 17/10 Q1011
  • 251730Z 15009KT 110V190 9999 FEW070 BKN100 17/10 Q1011

TAF TAF LJPZ
Valide du 25 à 18h jusqu'au 26 à 03h UTC


251700Z 2518/2603 19010KT 9999 FEW030 SCT090
TEMPO 2518/2603 19015G25KT FEW030 BKN090
Pas de NOTAMs connus pour ce terrain.



MET'MAP, la Météo Aéronautique d'un coup d'oeil ! - Copyright ORBIFLY Décembre 2007 - Disclaimer

ORBIFLY MET'MAP TEAM :

Programmation & Développement : Alexandra Zaïnal
Conception & Développement : Baudouin d'Aumeries
Co-Programmation & Développement : Marc-Olivier Méhu
Soutien technique & logistique : Manuel Goepfert

Contact : metmap@orbifly.com




SOURCES & CREDITS :

   NOAA